Date,TemperatureHighF,TemperatureAvgF,TemperatureLowF,DewpointHighF,DewpointAvgF,DewpointLowF,HumidityHigh,HumidityAvg,HumidityLow,PressureMaxIn,PressureMinIn,WindSpeedMaxMPH,WindSpeedAvgMPH,GustSpeedMaxMPH,PrecipitationSumIn
2012-1-1,36,28,23,-100,-100,-100,0,0,100,0.00,40.00,0,-999,0,0.00
2012-1-2,22,19,15,-100,-100,-100,0,0,100,0.00,40.00,0,-999,0,0.00
2012-1-3,29,22,14,-100,-100,-100,0,0,100,0.00,40.00,0,-999,0,0.00
2012-1-4,39,30,25,-100,-100,-100,0,0,100,0.00,40.00,0,-999,0,0.00
2012-1-5,51,38,25,-100,-100,-100,0,0,100,0.00,40.00,0,-999,0,0.00
2012-1-6,49,41,35,-100,-100,-100,0,0,100,0.00,40.00,0,-999,0,0.00
2012-1-7,39,33,26,-100,-100,-100,0,0,100,0.00,40.00,0,-999,0,0.00
2012-1-8,41,28,21,-100,-100,-100,0,0,100,0.00,40.00,0,-999,0,0.00
2012-1-9,50,39,32,-100,-100,-100,0,0,100,0.00,40.00,0,-999,0,0.00
2012-1-10,56,37,26,-100,-100,-100,0,0,100,0.00,40.00,0,-999,0,0.00
2012-1-11,37,27,15,-100,-100,-100,0,0,100,0.00,40.00,0,-999,0,0.00
2012-1-12,16,14,11,-100,-100,-100,0,0,100,0.00,40.00,0,-999,0,0.00
2012-1-13,17,13,10,-100,-100,-100,0,0,100,0.00,40.00,0,-999,0,0.00
2012-1-14,32,22,12,-100,-100,-100,0,0,100,0.00,40.00,0,-999,0,0.00
2012-1-15,46,28,15,-100,-100,-100,0,0,100,0.00,40.00,0,-999,0,0.00
2012-1-16,33,29,20,-100,-100,-100,0,0,100,0.00,40.00,0,-999,0,0.00
2012-1-17,20,15,8,-100,-100,-100,0,0,100,0.00,40.00,0,-999,0,0.00
2012-1-18,28,15,3,-100,-100,-100,0,0,100,0.00,40.00,0,-999,0,0.00
2012-1-19,8,2,-6,-100,-100,-100,0,0,100,0.00,40.00,0,-999,0,0.00
2012-1-20,17,9,2,-100,-100,-100,0,0,100,0.00,40.00,0,-999,0,0.00
2012-1-21,22,10,-2,-100,-100,-100,0,0,100,0.00,40.00,0,-999,0,0.00
2012-1-22,30,27,23,-100,-100,-100,0,0,100,0.00,40.00,0,-999,0,0.00
2012-1-23,29,26,22,-100,-100,-100,0,0,100,0.00,40.00,0,-999,0,0.00
2012-1-24,29,24,21,-100,-100,-100,0,0,100,0.00,40.00,0,-999,0,0.00
2012-1-25,35,31,26,-100,-100,-100,0,0,100,0.00,40.00,0,-999,0,0.00
2012-1-26,43,34,22,-100,-100,-100,0,0,100,0.00,40.00,0,-999,0,0.00
2012-1-27,36,29,22,-100,-100,-100,0,0,100,0.00,40.00,0,-999,0,0.00
2012-1-28,34,25,20,-100,-100,-100,0,0,100,0.00,40.00,0,-999,0,0.00
2012-1-29,24,20,17,-100,-100,-100,0,0,100,0.00,40.00,0,-999,0,0.00
2012-1-30,54,36,27,-100,-100,-100,0,0,100,0.00,40.00,0,-999,0,0.00
2012-1-31,46,37,32,-100,-100,-100,0,0,100,0.00,40.00,0,-999,0,0.00
2012-2-1,40,37,33,-100,-100,-100,0,0,100,0.00,40.00,0,-999,0,0.00
2012-2-2,41,32,28,-100,-100,-100,0,0,100,0.00,40.00,0,-999,0,0.00
2012-2-3,36,34,32,-100,-100,-100,0,0,100,0.00,40.00,0,-999,0,0.00
2012-2-4,34,31,28,-100,-100,-100,0,0,100,0.00,40.00,0,-999,0,0.00
2012-2-5,33,32,30,-100,-100,-100,0,0,100,0.00,40.00,0,-999,0,0.00
2012-2-6,49,34,25,-100,-100,-100,0,0,100,0.00,40.00,0,-999,0,0.00
2012-2-7,33,29,21,-100,-100,-100,0,0,100,0.00,40.00,0,-999,0,0.00
2012-2-8,32,21,10,-100,-100,-100,0,0,100,0.00,40.00,0,-999,0,0.00
2012-2-9,42,29,16,-100,-100,-100,0,0,100,0.00,40.00,0,-999,0,0.00
2012-2-10,31,16,10,-100,-100,-100,0,0,100,0.00,40.00,0,-999,0,0.00
2012-2-11,22,13,2,-100,-100,-100,0,0,100,0.00,40.00,0,-999,0,0.00
2012-2-12,36,23,7,-100,-100,-100,0,0,100,0.00,40.00,0,-999,0,0.00
2012-2-13,31,28,21,-100,-100,-100,0,0,100,0.00,40.00,0,-999,0,0.00
2012-2-14,39,32,22,-100,-100,-100,0,0,100,0.00,40.00,0,-999,0,0.00
2012-2-15,40,28,19,-100,-100,-100,0,0,100,0.00,40.00,0,-999,0,0.00
2012-2-16,44,33,25,-100,-100,-100,0,0,100,0.00,40.00,0,-999,0,0.00
2012-2-17,42,32,25,-100,-100,-100,0,0,100,0.00,40.00,0,-999,0,0.00
2012-2-18,40,27,18,-100,-100,-100,0,0,100,0.00,40.00,0,-999,0,0.00
2012-2-19,46,32,18,-100,-100,-100,0,0,100,0.00,40.00,0,-999,0,0.00
2012-2-20,46,36,29,-100,-100,-100,0,0,100,0.00,40.00,0,-999,0,0.00
2012-2-21,36,35,33,-100,-100,-100,0,0,100,0.00,40.00,0,-999,0,0.00
2012-2-22,41,32,25,-100,-100,-100,0,0,100,0.00,40.00,0,-999,0,0.00
2012-2-23,40,35,28,-100,-100,-100,0,0,100,0.00,40.00,0,-999,0,0.00
2012-2-24,33,26,18,-100,-100,-100,0,0,100,0.00,40.00,0,-999,0,0.00
2012-2-25,32,25,14,-100,-100,-100,0,0,100,0.00,40.00,0,-999,0,0.00
2012-2-26,36,32,28,-100,-100,-100,0,0,100,0.00,40.00,0,-999,0,0.00
2012-2-27,35,27,20,-100,-100,-100,0,0,100,0.00,40.00,0,-999,0,0.00
2012-2-28,36,33,28,-100,-100,-100,0,0,100,0.00,40.00,0,-999,0,0.00
2012-2-29,36,35,34,-100,-100,-100,0,0,100,0.00,40.00,0,-999,0,0.00
2012-3-1,38,35,32,-100,-100,-100,0,0,100,0.00,40.00,0,-999,0,0.00
2012-3-2,36,33,29,-100,-100,-100,0,0,100,0.00,40.00,0,-999,0,0.00
2012-3-3,25,21,15,-100,-100,-100,0,0,100,0.00,40.00,0,-999,0,0.00
2012-3-4,29,20,12,-100,-100,-100,0,0,100,0.00,40.00,0,-999,0,0.00
2012-3-5,38,29,18,-100,-100,-100,0,0,100,0.00,40.00,0,-999,0,0.00
2012-3-6,61,50,38,-100,-100,-100,0,0,100,0.00,40.00,0,-999,0,0.00
2012-3-7,43,38,29,-100,-100,-100,0,0,100,0.00,40.00,0,-999,0,0.00
2012-3-8,41,32,25,-100,-100,-100,0,0,100,0.00,40.00,0,-999,0,0.00
2012-3-9,39,32,21,-100,-100,-100,0,0,100,0.00,40.00,0,-999,0,0.00
2012-3-10,67,51,40,-100,-100,-100,0,0,100,0.00,40.00,0,-999,0,0.00
2012-3-11,65,56,41,-100,-100,-100,0,0,100,0.00,40.00,0,-999,0,0.00
2012-3-12,53,50,47,-100,-100,-100,0,0,100,0.00,40.00,0,-999,0,0.00
2012-3-13,71,52,32,-100,-100,-100,0,0,100,0.00,40.00,0,-999,0,0.00
2012-3-14,74,61,47,-100,-100,-100,0,0,100,0.00,40.00,0,-999,0,0.00
2012-3-15,73,53,36,-100,-100,-100,0,0,100,0.00,40.00,0,-999,0,0.00
2012-3-16,81,62,40,-100,-100,-100,0,0,100,0.00,40.00,0,-999,0,0.00
2012-3-17,81,67,56,-100,-100,-100,0,0,100,0.00,40.00,0,-999,0,0.00
2012-3-18,83,73,67,-100,-100,-100,0,0,100,0.00,40.00,0,-999,0,0.00
2012-3-19,83,72,63,-100,-100,-100,0,0,100,0.00,40.00,0,-999,0,0.00
2012-3-20,65,62,58,-100,-100,-100,0,0,100,0.00,40.00,0,-999,0,0.00
2012-3-21,65,61,57,-100,-100,-100,0,0,100,0.00,40.00,0,-999,0,0.00
2012-3-22,67,61,58,-100,-100,-100,0,0,100,0.00,40.00,0,-999,0,0.00
2012-3-23,73,64,59,-100,-100,-100,0,0,100,0.00,40.00,0,-999,0,0.00
2012-3-24,69,62,55,-100,-100,-100,0,0,100,0.00,40.00,0,-999,0,0.00
2012-3-25,58,53,42,-100,-100,-100,0,0,100,0.00,40.00,0,-999,0,0.00
2012-3-26,50,44,40,-100,-100,-100,0,0,100,0.00,40.00,0,-999,0,0.00
2012-3-27,68,58,46,-100,-100,-100,0,0,100,0.00,40.00,0,-999,0,0.00
2012-3-28,58,50,41,-100,-100,-100,0,0,100,0.00,40.00,0,-999,0,0.00
2012-3-29,65,51,39,-100,-100,-100,0,0,100,0.00,40.00,0,-999,0,0.00
2012-3-30,61,55,49,-100,-100,-100,0,0,100,0.00,40.00,0,-999,0,0.00
2012-3-31,54,52,46,-100,-100,-100,0,0,100,0.00,40.00,0,-999,0,0.00
2012-4-1,73,58,50,-100,-100,-100,0,0,100,0.00,40.00,0,-999,0,0.00
2012-4-2,76,64,54,-100,-100,-100,0,0,100,0.00,40.00,0,-999,0,0.00
2012-4-3,69,57,46,-100,-100,-100,0,0,100,0.00,40.00,0,-999,0,0.00
2012-4-4,65,54,38,-100,-100,-100,0,0,100,0.00,40.00,0,-999,0,0.00
2012-4-5,63,52,40,-100,-100,-100,0,0,100,0.00,40.00,0,-999,0,0.00
2012-4-6,67,49,33,-100,-100,-100,0,0,100,0.00,40.00,0,-999,0,0.00
2012-4-7,59,53,48,-100,-100,-100,0,0,100,0.00,40.00,0,-999,0,0.00
2012-4-8,65,47,35,-100,-100,-100,0,0,100,0.00,40.00,0,-999,0,0.00
2012-4-9,52,43,35,-100,-100,-100,0,0,100,0.00,40.00,0,-999,0,0.00
2012-4-10,49,39,26,-100,-100,-100,0,0,100,0.00,40.00,0,-999,0,0.00
2012-4-11,62,44,28,-100,-100,-100,0,0,100,0.00,40.00,0,-999,0,0.00
2012-4-12,69,49,29,-100,-100,-100,0,0,100,0.00,40.00,0,-999,0,0.00
2012-4-13,58,54,51,-100,-100,-100,0,0,100,0.00,40.00,0,-999,0,0.00
2012-4-14,76,60,43,-100,-100,-100,0,0,100,0.00,40.00,0,-999,0,0.00
2012-4-15,76,65,53,-100,-100,-100,0,0,100,0.00,40.00,0,-999,0,0.00
2012-4-16,50,42,38,-100,-100,-100,0,0,100,0.00,40.00,0,-999,0,0.00
2012-4-17,63,51,36,-100,-100,-100,0,0,100,0.00,40.00,0,-999,0,0.00
2012-4-18,59,58,51,-100,-100,-100,0,0,100,0.00,40.00,0,-999,0,0.00
2012-4-19,51,44,42,-100,-100,-100,0,0,100,0.00,40.00,0,-999,0,0.00
2012-4-20,64,48,34,-100,-100,-100,0,0,100,0.00,40.00,0,-999,0,0.00
2012-4-21,50,47,45,-100,-100,-100,0,0,100,0.00,40.00,0,-999,0,0.00
2012-4-22,59,50,46,-100,-100,-100,0,0,100,0.00,40.00,0,-999,0,0.00
2012-4-23,69,55,37,-100,-100,-100,0,0,100,0.00,40.00,0,-999,0,0.00
2012-4-24,79,64,47,-100,-100,-100,0,0,100,0.00,40.00,0,-999,0,0.00
2012-4-25,80,68,56,-100,-100,-100,0,0,100,0.00,40.00,0,-999,0,0.00
2012-4-26,63,55,43,-100,-100,-100,0,0,100,0.00,40.00,0,-999,0,0.00
2012-4-27,56,50,43,-100,-100,-100,0,0,100,0.00,40.00,0,-999,0,0.00
2012-4-28,53,46,43,-100,-100,-100,0,0,100,0.00,40.00,0,-999,0,0.00
2012-4-29,60,52,46,-100,-100,-100,0,0,100,0.00,40.00,0,-999,0,0.00
2012-4-30,67,57,51,-100,-100,-100,0,0,100,0.00,40.00,0,-999,0,0.00
2012-5-1,76,66,57,-100,-100,-100,0,0,100,0.00,40.00,0,-999,0,0.00
2012-5-2,85,75,59,-100,-100,-100,0,0,100,0.00,40.00,0,-999,0,0.00
2012-5-3,83,73,67,-100,-100,-100,0,0,100,0.00,40.00,0,-999,0,0.00
2012-5-4,73,65,57,-100,-100,-100,0,0,100,0.00,40.00,0,-999,0,0.00
2012-5-5,63,60,58,-100,-100,-100,0,0,100,0.00,40.00,0,-999,0,0.00
2012-5-6,69,62,57,-100,-100,-100,0,0,100,0.00,40.00,0,-999,0,0.00
2012-5-7,69,61,51,-100,-100,-100,0,0,100,0.00,40.00,0,-999,0,0.00
2012-5-8,65,55,48,-100,-100,-100,0,0,100,0.00,40.00,0,-999,0,0.00
2012-5-9,65,57,51,-100,-100,-100,0,0,100,0.00,40.00,0,-999,0,0.00
2012-5-10,78,61,46,-100,-100,-100,0,0,100,0.00,40.00,0,-999,0,0.00
2012-5-11,69,64,55,-100,-100,-100,0,0,100,0.00,40.00,0,-999,0,0.00
2012-5-12,76,65,53,-100,-100,-100,0,0,100,0.00,40.00,0,-999,0,0.00
2012-5-13,81,60,44,-100,-100,-100,0,0,100,0.00,40.00,0,-999,0,0.00
2012-5-14,91,77,48,-100,-100,-100,0,0,100,0.00,40.00,0,-999,0,0.00
2012-5-15,77,68,55,-100,-100,-100,0,0,100,0.00,40.00,0,-999,0,0.00
2012-5-16,79,61,45,-100,-100,-100,0,0,100,0.00,40.00,0,-999,0,0.00
2012-5-17,87,72,52,-100,-100,-100,0,0,100,0.00,40.00,0,-999,0,0.00
2012-5-18,94,78,68,-100,-100,-100,0,0,100,0.00,40.00,0,-999,0,0.00
2012-5-19,87,78,70,-100,-100,-100,0,0,100,0.00,40.00,0,-999,0,0.00
2012-5-20,69,61,55,-100,-100,-100,0,0,100,0.00,40.00,0,-999,0,0.00
2012-5-21,80,70,53,-100,-100,-100,0,0,100,0.00,40.00,0,-999,0,0.00
2012-5-22,88,72,51,-100,-100,-100,0,0,100,0.00,40.00,0,-999,0,0.00
2012-5-23,87,76,64,-100,-100,-100,0,0,100,0.00,40.00,0,-999,0,0.00
2012-5-24,65,64,60,-100,-100,-100,0,0,100,0.00,40.00,0,-999,0,0.00
2012-5-25,70,64,53,-100,-100,-100,0,0,100,0.00,40.00,0,-999,0,0.00
2012-5-26,67,64,60,-100,-100,-100,0,0,100,0.00,40.00,0,-999,0,0.00
2012-5-27,92,80,68,-100,-100,-100,0,0,100,0.00,40.00,0,-999,0,0.00
2012-5-28,79,70,61,-100,-100,-100,0,0,100,0.00,40.00,0,-999,0,0.00
2012-5-29,66,60,56,-100,-100,-100,0,0,100,0.00,40.00,0,-999,0,0.00
2012-5-30,63,57,51,-100,-100,-100,0,0,100,0.00,40.00,0,-999,0,0.00
2012-5-31,69,60,52,-100,-100,-100,0,0,100,0.00,40.00,0,-999,0,0.00
2012-6-1,76,63,49,-100,-100,-100,0,0,100,0.00,40.00,0,-999,0,0.00
2012-6-2,78,67,51,-100,-100,-100,0,0,100,0.00,40.00,0,-999,0,0.00
2012-6-3,80,66,54,-100,-100,-100,0,0,100,0.00,40.00,0,-999,0,0.00
2012-6-4,89,76,58,-100,-100,-100,0,0,100,0.00,40.00,0,-999,0,0.00
2012-6-5,90,75,61,-100,-100,-100,0,0,100,0.00,40.00,0,-999,0,0.00
2012-6-6,87,72,62,-100,-100,-100,0,0,100,0.00,40.00,0,-999,0,0.00
2012-6-7,85,74,62,-100,-100,-100,0,0,100,0.00,40.00,0,-999,0,0.00
2012-6-8,91,79,67,-100,-100,-100,0,0,100,0.00,40.00,0,-999,0,0.00
2012-6-9,94,84,67,-100,-100,-100,0,0,100,0.00,40.00,0,-999,0,0.00
2012-6-10,93,83,64,-100,-100,-100,0,0,100,0.00,40.00,0,-999,0,0.00
2012-6-11,74,67,62,-100,-100,-100,0,0,100,0.00,40.00,0,-999,0,0.00
2012-6-12,75,64,52,-100,-100,-100,0,0,100,0.00,40.00,0,-999,0,0.00
2012-6-13,76,65,54,-100,-100,-100,0,0,100,0.00,40.00,0,-999,0,0.00
2012-6-14,72,69,66,-100,-100,-100,0,0,100,0.00,40.00,0,-999,0,0.00
2012-6-15,81,73,65,-100,-100,-100,0,0,100,0.00,40.00,0,-999,0,0.00
2012-6-16,85,72,62,-100,-100,-100,0,0,100,0.00,40.00,0,-999,0,0.00
2012-6-17,78,67,58,-100,-100,-100,0,0,100,0.00,40.00,0,-999,0,0.00
2012-6-18,68,68,68,-100,-100,-100,0,0,100,0.00,40.00,0,-999,0,0.00
2012-6-19,94,88,68,-100,-100,-100,0,0,100,0.00,40.00,0,-999,0,0.00
2012-6-20,76,73,70,-100,-100,-100,0,0,100,0.00,40.00,0,-999,0,0.00
2012-6-21,82,72,62,-100,-100,-100,0,0,100,0.00,40.00,0,-999,0,0.00
2012-6-22,89,74,59,-100,-100,-100,0,0,100,0.00,40.00,0,-999,0,0.00
2012-6-23,82,73,65,-100,-100,-100,0,0,100,0.00,40.00,0,-999,0,0.00
2012-6-24,92,75,66,-100,-100,-100,0,0,100,0.00,40.00,0,-999,0,0.00
2012-6-25,83,68,58,-100,-100,-100,0,0,100,0.00,40.00,0,-999,0,0.00
2012-6-26,85,72,58,-100,-100,-100,0,0,100,0.00,40.00,0,-999,0,0.00
2012-6-27,98,82,70,-100,-100,-100,0,0,100,0.00,40.00,0,-999,0,0.00
2012-6-28,94,82,73,-100,-100,-100,0,0,100,0.00,40.00,0,-999,0,0.00
2012-6-29,94,80,64,-100,-100,-100,0,0,100,0.00,40.00,0,-999,0,0.00
2012-6-30,99,85,70,-100,-100,-100,0,0,100,0.00,40.00,0,-999,0,0.00
2012-7-1,94,82,70,-100,-100,-100,0,0,100,0.00,40.00,0,-999,0,0.00
2012-7-2,98,86,75,-100,-100,-100,0,0,100,0.00,40.00,0,-999,0,0.00
2012-7-3,102,87,73,-100,-100,-100,0,0,100,0.00,40.00,0,-999,0,0.00
2012-7-4,100,89,81,-100,-100,-100,0,0,100,0.00,40.00,0,-999,0,0.00
2012-7-5,102,86,80,-100,-100,-100,0,0,100,0.00,40.00,0,-999,0,0.00
2012-7-6,102,87,75,-100,-100,-100,0,0,100,0.00,40.00,0,-999,0,0.00
2012-7-7,92,77,69,-100,-100,-100,0,0,100,0.00,40.00,0,-999,0,0.00
2012-7-8,96,79,69,-100,-100,-100,0,0,100,0.00,40.00,0,-999,0,0.00
2012-7-9,94,77,68,-100,-100,-100,0,0,100,0.00,40.00,0,-999,0,0.00
2012-7-10,94,78,62,-100,-100,-100,0,0,100,0.00,40.00,0,-999,0,0.00
2012-7-11,88,75,64,-100,-100,-100,0,0,100,0.00,40.00,0,-999,0,0.00
2012-7-12,91,77,64,-100,-100,-100,0,0,100,0.00,40.00,0,-999,0,0.00
2012-7-13,89,81,72,-100,-100,-100,0,0,100,0.00,40.00,0,-999,0,0.00
2012-7-14,98,81,69,-100,-100,-100,0,0,100,0.00,40.00,0,-999,0,0.00
2012-7-15,93,82,71,-100,-100,-100,0,0,100,0.00,40.00,0,-999,0,0.00
2012-7-16,98,86,73,-100,-100,-100,0,0,100,0.00,40.00,0,-999,0,0.00
2012-7-17,100,87,75,-100,-100,-100,0,0,100,0.00,40.00,0,-999,0,0.00
2012-7-18,83,78,74,-100,-100,-100,0,0,100,0.00,40.00,0,-999,0,0.00
2012-7-19,94,78,72,-100,-100,-100,0,0,100,0.00,40.00,0,-999,0,0.00
2012-7-20,89,79,69,-100,-100,-100,0,0,100,0.00,40.00,0,-999,0,0.00
2012-7-21,92,80,72,-100,-100,-100,0,0,100,0.00,40.00,0,-999,0,0.00
2012-7-22,91,80,73,-100,-100,-100,0,0,100,0.00,40.00,0,-999,0,0.00
2012-7-23,96,83,76,-100,-100,-100,0,0,100,0.00,40.00,0,-999,0,0.00
2012-7-24,84,79,73,-100,-100,-100,0,0,100,0.00,40.00,0,-999,0,0.00
2012-7-25,94,85,76,-100,-100,-100,0,0,100,0.00,40.00,0,-999,0,0.00
2012-7-26,86,74,70,-100,-100,-100,0,0,100,0.00,40.00,0,-999,0,0.00
2012-7-27,83,74,65,-100,-100,-100,0,0,100,0.00,40.00,0,-999,0,0.00
2012-7-28,87,77,62,-100,-100,-100,0,0,100,0.00,40.00,0,-999,0,0.00
2012-7-29,87,77,70,-100,-100,-100,0,0,100,0.00,40.00,0,-999,0,0.00
2012-7-30,93,83,69,-100,-100,-100,0,0,100,0.00,40.00,0,-999,0,0.00
2012-7-31,78,71,68,-100,-100,-100,0,0,100,0.00,40.00,0,-999,0,0.00
2012-8-1,74,72,68,-100,-100,-100,0,0,100,0.00,40.00,0,-999,0,0.00
2012-8-2,76,72,69,-100,-100,-100,0,0,100,0.00,40.00,0,-999,0,0.00
2012-8-3,97,81,66,-100,-100,-100,0,0,100,0.00,40.00,0,-999,0,0.00
2012-8-11,80,75,70,-100,-100,-100,0,0,100,0.00,40.00,0,-999,0,0.00
2012-8-12,65,64,63,-100,-100,-100,0,0,100,0.00,40.00,0,-999,0,0.00
2012-8-13,84,71,57,-100,-100,-100,0,0,100,0.00,40.00,0,-999,0,0.00
2012-8-14,78,70,58,-100,-100,-100,0,0,100,0.00,40.00,0,-999,0,0.00
2012-8-15,85,73,65,-100,-100,-100,0,0,100,0.00,40.00,0,-999,0,0.00
2012-8-16,73,67,57,-100,-100,-100,0,0,100,0.00,40.00,0,-999,0,0.00
2012-8-17,76,61,51,-100,-100,-100,0,0,100,0.00,40.00,0,-999,0,0.00
2012-8-18,80,67,53,-100,-100,-100,0,0,100,0.00,40.00,0,-999,0,0.00
2012-8-19,80,70,58,-100,-100,-100,0,0,100,0.00,40.00,0,-999,0,0.00
2012-8-20,81,62,52,-100,-100,-100,0,0,100,0.00,40.00,0,-999,0,0.00
2012-8-21,83,69,53,-100,-100,-100,0,0,100,0.00,40.00,0,-999,0,0.00
2012-8-22,78,64,55,-100,-100,-100,0,0,100,0.00,40.00,0,-999,0,0.00
2012-8-23,89,78,65,-100,-100,-100,0,0,100,0.00,40.00,0,-999,0,0.00
2012-8-24,93,78,67,-100,-100,-100,0,0,100,0.00,40.00,0,-999,0,0.00
2012-8-25,74,71,67,-100,-100,-100,0,0,100,0.00,40.00,0,-999,0,0.00
2012-8-26,90,76,71,-100,-100,-100,0,0,100,0.00,40.00,0,-999,0,0.00
2012-8-27,90,79,63,-100,-100,-100,0,0,100,0.00,40.00,0,-999,0,0.00
2012-8-28,91,77,66,-100,-100,-100,0,0,100,0.00,40.00,0,-999,0,0.00
2012-8-29,98,79,66,-100,-100,-100,0,0,100,0.00,40.00,0,-999,0,0.00
2012-8-30,95,82,72,-100,-100,-100,0,0,100,0.00,40.00,0,-999,0,0.00
2012-8-31,90,74,62,-100,-100,-100,0,0,100,0.00,40.00,0,-999,0,0.00
2012-9-1,86,71,58,-100,-100,-100,0,0,100,0.00,40.00,0,-999,0,0.00
2012-9-2,93,79,58,-100,-100,-100,0,0,100,0.00,40.00,0,-999,0,0.00
2012-9-3,91,78,72,-100,-100,-100,0,0,100,0.00,40.00,0,-999,0,0.00
2012-9-4,92,77,66,-100,-100,-100,0,0,100,0.00,40.00,0,-999,0,0.00
2012-9-5,83,70,60,-100,-100,-100,0,0,100,0.00,40.00,0,-999,0,0.00
2012-9-6,83,68,52,-100,-100,-100,0,0,100,0.00,40.00,0,-999,0,0.00
2012-9-7,73,68,56,-100,-100,-100,0,0,100,0.00,40.00,0,-999,0,0.00
2012-9-8,79,64,49,-100,-100,-100,0,0,100,0.00,40.00,0,-999,0,0.00
2012-9-9,78,64,52,-100,-100,-100,0,0,100,0.00,40.00,0,-999,0,0.00
2012-9-10,84,68,50,-100,-100,-100,0,0,100,0.00,40.00,0,-999,0,0.00
2012-9-11,96,80,66,-100,-100,-100,0,0,100,0.00,40.00,0,-999,0,0.00
2012-9-12,69,61,58,-100,-100,-100,0,0,100,0.00,40.00,0,-999,0,0.00
2012-9-13,82,66,54,-100,-100,-100,0,0,100,0.00,40.00,0,-999,0,0.00
2012-9-14,83,65,48,-100,-100,-100,0,0,100,0.00,40.00,0,-999,0,0.00
2012-9-15,87,63,49,-100,-100,-100,0,0,100,0.00,40.00,0,-999,0,0.00
2012-9-16,84,71,61,-100,-100,-100,0,0,100,0.00,40.00,0,-999,0,0.00
2012-9-17,65,59,54,-100,-100,-100,0,0,100,0.00,40.00,0,-999,0,0.00
2012-9-18,62,47,41,-100,-100,-100,0,0,100,0.00,40.00,0,-999,0,0.00
2012-10-3,81,72,59,-100,-100,-100,0,0,100,0.00,40.00,0,-999,0,0.00
2012-10-4,58,51,47,-100,-100,-100,0,0,100,0.00,40.00,0,-999,0,0.00
2012-10-5,51,44,37,-100,-100,-100,0,0,100,0.00,40.00,0,-999,0,0.00
2012-10-6,47,41,33,-100,-100,-100,0,0,100,0.00,40.00,0,-999,0,0.00
2012-10-7,59,41,25,-100,-100,-100,0,0,100,0.00,40.00,0,-999,0,0.00
2012-10-8,65,48,36,-100,-100,-100,0,0,100,0.00,40.00,0,-999,0,0.00
2012-10-9,52,48,43,-100,-100,-100,0,0,100,0.00,40.00,0,-999,0,0.00
2012-10-10,56,45,31,-100,-100,-100,0,0,100,0.00,40.00,0,-999,0,0.00
2012-10-11,55,49,36,-100,-100,-100,0,0,100,0.00,40.00,0,-999,0,0.00
2012-10-12,57,42,26,-100,-100,-100,0,0,100,0.00,40.00,0,-999,0,0.00
2012-10-13,59,55,51,-100,-100,-100,0,0,100,0.00,40.00,0,-999,0,0.00
2012-10-14,62,55,48,-100,-100,-100,0,0,100,0.00,40.00,0,-999,0,0.00
2012-10-15,66,52,36,-100,-100,-100,0,0,100,0.00,40.00,0,-999,0,0.00
2012-10-16,70,61,51,-100,-100,-100,0,0,100,0.00,40.00,0,-999,0,0.00
2012-10-17,62,54,47,-100,-100,-100,0,0,100,0.00,40.00,0,-999,0,0.00
2012-10-18,51,48,44,-100,-100,-100,0,0,100,0.00,40.00,0,-999,0,0.00
2012-10-19,57,51,47,-100,-100,-100,0,0,100,0.00,40.00,0,-999,0,0.00
2012-10-20,54,48,43,-100,-100,-100,0,0,100,0.00,40.00,0,-999,0,0.00
2012-10-21,72,53,40,-100,-100,-100,0,0,100,0.00,40.00,0,-999,0,0.00
2012-10-22,65,56,48,-100,-100,-100,0,0,100,0.00,40.00,0,-999,0,0.00
2012-10-23,64,62,59,-100,-100,-100,0,0,100,0.00,40.00,0,-999,0,0.00
2012-10-24,62,57,53,-100,-100,-100,0,0,100,0.00,40.00,0,-999,0,0.00
2012-10-25,47,41,37,-100,-100,-100,0,0,100,0.00,40.00,0,-999,0,0.00
2012-10-26,41,38,34,-100,-100,-100,0,0,100,0.00,40.00,0,-999,0,0.00
2012-10-27,45,37,29,-100,-100,-100,0,0,100,0.00,40.00,0,-999,0,0.00
2012-10-28,48,38,28,-100,-100,-100,0,0,100,0.00,40.00,0,-999,0,0.00
2012-10-29,51,40,29,-100,-100,-100,0,0,100,0.00,40.00,0,-999,0,0.00
2012-10-30,47,38,28,-100,-100,-100,0,0,100,0.00,40.00,0,-999,0,0.00
2012-10-31,54,40,26,-100,-100,-100,0,0,100,0.00,40.00,0,-999,0,0.00
2012-11-1,50,44,37,-100,-100,-100,0,0,100,0.00,40.00,0,-999,0,0.00
2012-11-2,41,35,27,-100,-100,-100,0,0,100,0.00,40.00,0,-999,0,0.00
2012-11-3,45,42,38,-100,-100,-100,0,0,100,0.00,40.00,0,-999,0,0.00
2012-11-4,46,43,40,-100,-100,-100,0,0,100,0.00,40.00,0,-999,0,0.00
2012-11-5,46,45,43,-100,-100,-100,0,0,100,0.00,40.00,0,-999,0,0.00
2012-11-6,45,43,41,-100,-100,-100,0,0,100,0.00,40.00,0,-999,0,0.00
2012-11-7,48,43,37,-100,-100,-100,0,0,100,0.00,40.00,0,-999,0,0.00
2012-11-8,59,45,36,-100,-100,-100,0,0,100,0.00,40.00,0,-999,0,0.00
2012-11-9,56,45,36,-100,-100,-100,0,0,100,0.00,40.00,0,-999,0,0.00
2012-11-10,75,58,47,-100,-100,-100,0,0,100,0.00,40.00,0,-999,0,0.00
2012-11-11,56,36,24,-100,-100,-100,0,0,100,0.00,40.00,0,-999,0,0.00
2012-11-12,29,24,21,-100,-100,-100,0,0,100,0.00,40.00,0,-999,0,0.00
2012-11-13,47,36,19,-100,-100,-100,0,0,100,0.00,40.00,0,-999,0,0.00
2012-11-14,54,41,35,-100,-100,-100,0,0,100,0.00,40.00,0,-999,0,0.00
2012-11-15,54,39,30,-100,-100,-100,0,0,100,0.00,40.00,0,-999,0,0.00
2012-11-16,50,36,22,-100,-100,-100,0,0,100,0.00,40.00,0,-999,0,0.00
2012-11-17,58,47,29,-100,-100,-100,0,0,100,0.00,40.00,0,-999,0,0.00
2012-11-18,59,53,47,-100,-100,-100,0,0,100,0.00,40.00,0,-999,0,0.00
2012-11-19,65,53,40,-100,-100,-100,0,0,100,0.00,40.00,0,-999,0,0.00
2012-11-20,54,41,31,-100,-100,-100,0,0,100,0.00,40.00,0,-999,0,0.00
2012-11-21,68,54,42,-100,-100,-100,0,0,100,0.00,40.00,0,-999,0,0.00
2012-11-22,58,47,25,-100,-100,-100,0,0,100,0.00,40.00,0,-999,0,0.00
2012-11-23,28,24,18,-100,-100,-100,0,0,100,0.00,40.00,0,-999,0,0.00
2012-11-24,32,22,12,-100,-100,-100,0,0,100,0.00,40.00,0,-999,0,0.00
2012-11-25,33,32,31,-100,-100,-100,0,0,100,0.00,40.00,0,-999,0,0.00
2012-11-26,27,19,14,-100,-100,-100,0,0,100,0.00,40.00,0,-999,0,0.00
2012-11-27,42,27,15,-100,-100,-100,0,0,100,0.00,40.00,0,-999,0,0.00
2012-11-28,39,32,23,-100,-100,-100,0,0,100,0.00,40.00,0,-999,0,0.00
2012-11-29,44,33,22,-100,-100,-100,0,0,100,0.00,40.00,0,-999,0,0.00
2012-11-30,41,37,32,-100,-100,-100,0,0,100,0.00,40.00,0,-999,0,0.00
2012-12-1,51,41,36,-100,-100,-100,0,0,100,0.00,40.00,0,-999,0,0.00
2012-12-2,50,36,29,-100,-100,-100,0,0,100,0.00,40.00,0,-999,0,0.00
2012-12-3,57,50,44,-100,-100,-100,0,0,100,0.00,40.00,0,-999,0,0.00
2012-12-4,40,34,25,-100,-100,-100,0,0,100,0.00,40.00,0,-999,0,0.00
2012-12-5,41,30,18,-100,-100,-100,0,0,100,0.00,40.00,0,-999,0,0.00
2012-12-6,47,43,35,-100,-100,-100,0,0,100,0.00,40.00,0,-999,0,0.00
2012-12-7,32,30,26,-100,-100,-100,0,0,100,0.00,40.00,0,-999,0,0.00
2012-12-8,32,28,24,-100,-100,-100,0,0,100,0.00,40.00,0,-999,0,0.00
2012-12-9,35,32,25,-100,-100,-100,0,0,100,0.00,40.00,0,-999,0,0.00
2012-12-10,16,8,1,-100,-100,-100,0,0,100,0.00,40.00,0,-999,0,0.00
2012-12-11,25,16,9,-100,-100,-100,0,0,100,0.00,40.00,0,-999,0,0.00
2012-12-12,42,28,11,-100,-100,-100,0,0,100,0.00,40.00,0,-999,0,0.00
2012-12-13,34,27,19,-100,-100,-100,0,0,100,0.00,40.00,0,-999,0,0.00
2012-12-14,43,28,14,-100,-100,-100,0,0,100,0.00,40.00,0,-999,0,0.00
2012-12-15,39,38,36,-100,-100,-100,0,0,100,0.00,40.00,0,-999,0,0.00
2012-12-16,36,26,21,-100,-100,-100,0,0,100,0.00,40.00,0,-999,0,0.00
2012-12-17,27,25,22,-100,-100,-100,0,0,100,0.00,40.00,0,-999,0,0.00
2012-12-18,32,30,27,-100,-100,-100,0,0,100,0.00,40.00,0,-999,0,0.00
2012-12-19,36,30,23,-100,-100,-100,0,0,100,0.00,40.00,0,-999,0,0.00
2012-12-20,26,23,15,-100,-100,-100,0,0,100,0.00,40.00,0,-999,0,0.00
2012-12-21,17,11,7,-100,-100,-100,0,0,100,0.00,40.00,0,-999,0,0.00
2012-12-22,27,16,7,-100,-100,-100,0,0,100,0.00,40.00,0,-999,0,0.00
2012-12-23,24,17,14,-100,-100,-100,0,0,100,0.00,40.00,0,-999,0,0.00
2012-12-24,21,17,7,-100,-100,-100,0,0,100,0.00,40.00,0,-999,0,0.00
2012-12-25,11,5,1,-100,-100,-100,0,0,100,0.00,40.00,0,-999,0,0.00
2012-12-26,19,11,3,-100,-100,-100,0,0,100,0.00,40.00,0,-999,0,0.00
2012-12-27,22,14,6,-100,-100,-100,0,0,100,0.00,40.00,0,-999,0,0.00
2012-12-28,28,21,12,-100,-100,-100,0,0,100,0.00,40.00,0,-999,0,0.00
2012-12-29,21,13,5,-100,-100,-100,0,0,100,0.00,40.00,0,-999,0,0.00
2012-12-30,30,20,1,-100,-100,-100,0,0,100,0.00,40.00,0,-999,0,0.00
2012-12-31,16,13,-1,-100,-100,-100,0,0,100,0.00,40.00,0,-999,0,0.00
2013-1-1,21,5,-9,-100,-100,-100,0,0,100,0.00,40.00,0,-999,0,0.00